ULMMENKR

Guest
Details From ULMM - Murmansk
To ENKR - HOYBUKTMOEN
Flight Number -
Tags generated
Created
Modified
Stats Distance 83 nm / 154 km
Max Altitude 0 ft / 0 m
Waypoints 2
Social Downloads 3
Likes 0
Share VATSIM

Download

Looking for another format? Having issues loading an existing format? Contact us
Advertisement - Login to hide

Notes

Basic altitude profile: - Ascent Rate: 2500ft/min - Ascent Speed: 250kts - Cruise Altitude: 35000ft - Cruise Speed: 420kts - Descent Rate: 1500ft/min - Descent Speed: 250kts Options: - Use NATs: yes - Use PACOTS: yes - Use low airways: yes - Use high airways: yes

Route

ULMM ENKR

ID Type Via Altitude Latitude Longitude Leg Dist Tot Dist Heading (true) Name
O ULMM APT - 0 ft / 0 m 68.78167˚ 32.75082˚ - 0 nm - Murmansk
O ENKR APT - 0 ft / 0 m 69.72522˚ 29.89080˚ 83 nm 83 nm 314° / 312° HOYBUKTMOEN

Altitude Profile

Advertisement - Login to hide

ULMM

Details ICAO ULMM (MMK)
Name Murmansk
Region Russia
Timezone Europe/Moscow (UTC+3.0)
Stats Elevation 266 ft / 81 m (AMSL)
Location 68.781671° 32.750821°
Runways 1
Magnetic Variation 15.949° E

METAR

ULMM 151000Z 22003MPS 9999 SCT020 M04/M07 Q1001 R13/690145 NOSIG RMK QFE744

Decode

TAF

TAF TAF ULMM 150750Z 1509/1609 21003G08MPS 9999 BKN015 TEMPO 1509/1515 18003MPS 5000 -SHSN BKN015CB TEMPO 1515/1609 18002MPS 3100 -SHSN BR BKN011 BKN015CB

Decode

Departure Runways

ID Width Length Bearing (true) Bearing (mag) Surface Threshold Offset Overrun Length
14 148 ft / 45 m 8,172 ft / 2,491 m 146.23° 130.28° Concrete 0 ft / 0 m 160 ft / 49 m
32 148 ft / 45 m 8,172 ft / 2,491 m 326.26° 310.31° Concrete 0 ft / 0 m 160 ft / 49 m

ENKR

Details ICAO ENKR (KKN)
Name HOYBUKTMOEN
Region Norway
Timezone Europe/Oslo (UTC+1.0)
Stats Elevation 283 ft / 86 m (AMSL)
Location 69.725215° 29.890800°
Runways 1
Magnetic Variation 14.946° E

METAR

ENKR 150950Z 19011KT 9999 SCT015 BKN019 M03/M05 Q0998 RMK WIND 731FT 21019KT

Decode

TAF

Not found

Destination Runways

ID Width Length Bearing (true) Bearing (mag) Surface Threshold Offset Overrun Length
06 148 ft / 45 m 6,192 ft / 1,887 m 69.03° 54.08° Asphalt 184 ft / 56 m 0 ft / 0 m
24 148 ft / 45 m 6,192 ft / 1,887 m 249.07° 234.12° Asphalt 1,450 ft / 442 m 0 ft / 0 m

Approach Navaids

Runway Type Ident Frequency Range Bearing (true) Bearing (mag) Slope Elevation
24 Localiser KR 110.30 MHz 18 nm / 33 km 249.76° 234.81° - 283 ft / 86 m (AMSL)
24 Glidescope KR 110.30 MHz 10 nm / 19 km 249.05° 234.11° 3.40° 283 ft / 86 m (AMSL)

Popular Alternatives